sensor_id;sensor_type;location;lat;lon;timestamp;P1;durP1;ratioP1;P2;durP2;ratioP2
70102;SDS011;57470;50.034;15.256;2024-03-08T00:00:22;21.30;;;6.87;;
70102;SDS011;57470;50.034;15.256;2024-03-08T00:02:48;14.70;;;4.27;;
70102;SDS011;57470;50.034;15.256;2024-03-08T00:05:15;11.23;;;4.07;;
70102;SDS011;57470;50.034;15.256;2024-03-08T00:07:41;14.45;;;3.80;;
70102;SDS011;57470;50.034;15.256;2024-03-08T00:10:08;11.47;;;4.43;;
70102;SDS011;57470;50.034;15.256;2024-03-08T00:12:39;12.23;;;4.97;;
70102;SDS011;57470;50.034;15.256;2024-03-08T00:15:07;13.82;;;6.55;;
70102;SDS011;57470;50.034;15.256;2024-03-08T00:17:36;10.13;;;4.18;;
70102;SDS011;57470;50.034;15.256;2024-03-08T00:20:01;9.77;;;4.07;;
70102;SDS011;57470;50.034;15.256;2024-03-08T00:22:33;7.28;;;3.47;;
70102;SDS011;57470;50.034;15.256;2024-03-08T00:24:58;11.90;;;6.07;;
70102;SDS011;57470;50.034;15.256;2024-03-08T00:27:24;16.85;;;6.75;;
70102;SDS011;57470;50.034;15.256;2024-03-08T00:29:49;12.90;;;6.15;;
70102;SDS011;57470;50.034;15.256;2024-03-08T00:32:15;11.90;;;5.23;;
70102;SDS011;57470;50.034;15.256;2024-03-08T00:34:42;12.63;;;3.90;;
70102;SDS011;57470;50.034;15.256;2024-03-08T00:37:07;13.33;;;5.20;;
70102;SDS011;57470;50.034;15.256;2024-03-08T00:39:33;13.20;;;5.25;;
70102;SDS011;57470;50.034;15.256;2024-03-08T00:41:59;13.17;;;4.37;;
70102;SDS011;57470;50.034;15.256;2024-03-08T00:44:24;15.23;;;6.63;;
70102;SDS011;57470;50.034;15.256;2024-03-08T00:46:50;12.00;;;4.65;;
70102;SDS011;57470;50.034;15.256;2024-03-08T00:49:15;15.93;;;5.10;;
70102;SDS011;57470;50.034;15.256;2024-03-08T00:51:41;19.25;;;5.68;;
70102;SDS011;57470;50.034;15.256;2024-03-08T00:54:08;11.93;;;4.47;;
70102;SDS011;57470;50.034;15.256;2024-03-08T00:56:34;14.75;;;5.47;;
70102;SDS011;57470;50.034;15.256;2024-03-08T00:59:00;17.05;;;6.13;;
70102;SDS011;57470;50.034;15.256;2024-03-08T01:01:27;13.13;;;5.00;;
70102;SDS011;57470;50.034;15.256;2024-03-08T01:03:53;18.63;;;4.15;;
70102;SDS011;57470;50.034;15.256;2024-03-08T01:06:18;12.00;;;3.83;;
70102;SDS011;57470;50.034;15.256;2024-03-08T01:08:43;15.43;;;5.37;;
70102;SDS011;57470;50.034;15.256;2024-03-08T01:11:09;11.40;;;5.30;;
70102;SDS011;57470;50.034;15.256;2024-03-08T01:13:34;11.03;;;5.37;;
70102;SDS011;57470;50.034;15.256;2024-03-08T01:16:00;8.40;;;3.70;;
70102;SDS011;57470;50.034;15.256;2024-03-08T01:18:25;12.97;;;5.27;;
70102;SDS011;57470;50.034;15.256;2024-03-08T01:20:50;13.83;;;4.03;;
70102;SDS011;57470;50.034;15.256;2024-03-08T01:23:16;10.17;;;3.87;;
70102;SDS011;57470;50.034;15.256;2024-03-08T01:25:42;9.85;;;3.85;;
70102;SDS011;57470;50.034;15.256;2024-03-08T01:28:09;13.68;;;4.07;;
70102;SDS011;57470;50.034;15.256;2024-03-08T01:30:34;14.20;;;5.80;;
70102;SDS011;57470;50.034;15.256;2024-03-08T01:33:01;10.25;;;3.97;;
70102;SDS011;57470;50.034;15.256;2024-03-08T01:35:27;9.87;;;4.63;;
70102;SDS011;57470;50.034;15.256;2024-03-08T01:37:53;12.23;;;4.03;;
70102;SDS011;57470;50.034;15.256;2024-03-08T01:40:18;10.60;;;4.30;;
70102;SDS011;57470;50.034;15.256;2024-03-08T01:42:43;9.57;;;4.03;;
70102;SDS011;57470;50.034;15.256;2024-03-08T01:45:09;10.85;;;5.22;;
70102;SDS011;57470;50.034;15.256;2024-03-08T01:47:35;10.50;;;3.70;;
70102;SDS011;57470;50.034;15.256;2024-03-08T01:50:01;8.93;;;4.03;;
70102;SDS011;57470;50.034;15.256;2024-03-08T01:52:28;13.38;;;4.18;;
70102;SDS011;57470;50.034;15.256;2024-03-08T01:54:56;11.05;;;4.80;;
70102;SDS011;57470;50.034;15.256;2024-03-08T01:57:26;15.98;;;4.13;;
70102;SDS011;57470;50.034;15.256;2024-03-08T01:59:52;15.90;;;5.00;;
70102;SDS011;57470;50.034;15.256;2024-03-08T02:02:19;10.65;;;4.93;;
70102;SDS011;57470;50.034;15.256;2024-03-08T02:04:45;12.90;;;4.50;;
70102;SDS011;57470;50.034;15.256;2024-03-08T02:07:11;8.43;;;4.65;;
70102;SDS011;57470;50.034;15.256;2024-03-08T02:09:38;17.55;;;5.50;;
70102;SDS011;57470;50.034;15.256;2024-03-08T02:12:06;11.95;;;5.97;;
70102;SDS011;57470;50.034;15.256;2024-03-08T02:14:34;10.63;;;4.22;;
70102;SDS011;57470;50.034;15.256;2024-03-08T02:17:02;11.55;;;4.95;;
70102;SDS011;57470;50.034;15.256;2024-03-08T02:19:29;20.80;;;4.47;;
70102;SDS011;57470;50.034;15.256;2024-03-08T02:21:57;11.13;;;5.03;;
70102;SDS011;57470;50.034;15.256;2024-03-08T02:24:24;8.20;;;3.65;;
70102;SDS011;57470;50.034;15.256;2024-03-08T02:26:51;16.00;;;4.25;;
70102;SDS011;57470;50.034;15.256;2024-03-08T02:29:19;12.82;;;3.95;;
70102;SDS011;57470;50.034;15.256;2024-03-08T02:31:46;6.38;;;3.55;;
70102;SDS011;57470;50.034;15.256;2024-03-08T02:34:14;13.38;;;4.32;;
70102;SDS011;57470;50.034;15.256;2024-03-08T02:36:41;10.88;;;5.93;;
70102;SDS011;57470;50.034;15.256;2024-03-08T02:39:08;9.85;;;4.70;;
70102;SDS011;57470;50.034;15.256;2024-03-08T02:41:36;14.07;;;4.65;;
70102;SDS011;57470;50.034;15.256;2024-03-08T02:44:03;8.38;;;3.38;;
70102;SDS011;57470;50.034;15.256;2024-03-08T02:46:30;8.32;;;3.67;;
70102;SDS011;57470;50.034;15.256;2024-03-08T02:48:57;13.68;;;4.07;;
70102;SDS011;57470;50.034;15.256;2024-03-08T02:51:26;7.55;;;3.25;;
70102;SDS011;57470;50.034;15.256;2024-03-08T02:53:54;9.23;;;3.20;;
70102;SDS011;57470;50.034;15.256;2024-03-08T02:56:21;12.35;;;5.05;;
70102;SDS011;57470;50.034;15.256;2024-03-08T02:58:47;13.15;;;3.72;;
70102;SDS011;57470;50.034;15.256;2024-03-08T03:01:14;16.85;;;5.40;;
70102;SDS011;57470;50.034;15.256;2024-03-08T03:03:41;12.05;;;5.65;;
70102;SDS011;57470;50.034;15.256;2024-03-08T03:06:08;9.10;;;2.38;;
70102;SDS011;57470;50.034;15.256;2024-03-08T03:08:35;7.90;;;3.90;;
70102;SDS011;57470;50.034;15.256;2024-03-08T03:11:01;13.35;;;4.93;;
70102;SDS011;57470;50.034;15.256;2024-03-08T03:13:26;11.80;;;4.43;;
70102;SDS011;57470;50.034;15.256;2024-03-08T03:15:51;14.80;;;4.28;;
70102;SDS011;57470;50.034;15.256;2024-03-08T03:18:17;9.93;;;4.13;;
70102;SDS011;57470;50.034;15.256;2024-03-08T03:20:46;10.33;;;3.57;;
70102;SDS011;57470;50.034;15.256;2024-03-08T03:23:11;14.15;;;4.68;;
70102;SDS011;57470;50.034;15.256;2024-03-08T03:25:39;8.83;;;3.90;;
70102;SDS011;57470;50.034;15.256;2024-03-08T03:28:06;8.13;;;4.50;;
70102;SDS011;57470;50.034;15.256;2024-03-08T03:30:32;11.10;;;4.30;;
70102;SDS011;57470;50.034;15.256;2024-03-08T03:33:00;11.27;;;2.80;;
70102;SDS011;57470;50.034;15.256;2024-03-08T03:35:27;9.95;;;4.40;;
70102;SDS011;57470;50.034;15.256;2024-03-08T03:37:52;10.00;;;5.03;;
70102;SDS011;57470;50.034;15.256;2024-03-08T03:40:47;15.73;;;5.32;;
70102;SDS011;57470;50.034;15.256;2024-03-08T03:43:13;11.02;;;3.65;;
70102;SDS011;57470;50.034;15.256;2024-03-08T03:45:39;12.23;;;5.43;;
70102;SDS011;57470;50.034;15.256;2024-03-08T03:48:06;13.35;;;4.90;;
70102;SDS011;57470;50.034;15.256;2024-03-08T03:50:34;8.25;;;3.10;;
70102;SDS011;57470;50.034;15.256;2024-03-08T03:53:00;7.47;;;3.25;;
70102;SDS011;57470;50.034;15.256;2024-03-08T03:55:25;10.83;;;4.33;;
70102;SDS011;57470;50.034;15.256;2024-03-08T03:57:52;9.25;;;4.65;;
70102;SDS011;57470;50.034;15.256;2024-03-08T04:00:17;11.00;;;3.80;;
70102;SDS011;57470;50.034;15.256;2024-03-08T04:02:43;9.15;;;3.67;;
70102;SDS011;57470;50.034;15.256;2024-03-08T04:05:09;9.20;;;3.63;;
70102;SDS011;57470;50.034;15.256;2024-03-08T04:07:36;9.23;;;4.03;;
70102;SDS011;57470;50.034;15.256;2024-03-08T04:10:06;12.40;;;5.22;;
70102;SDS011;57470;50.034;15.256;2024-03-08T04:12:34;12.98;;;4.50;;
70102;SDS011;57470;50.034;15.256;2024-03-08T04:14:59;9.13;;;4.40;;
70102;SDS011;57470;50.034;15.256;2024-03-08T04:17:25;11.65;;;4.75;;
70102;SDS011;57470;50.034;15.256;2024-03-08T04:19:51;10.77;;;4.83;;
70102;SDS011;57470;50.034;15.256;2024-03-08T04:22:16;9.40;;;4.00;;
70102;SDS011;57470;50.034;15.256;2024-03-08T04:24:43;13.00;;;4.93;;
70102;SDS011;57470;50.034;15.256;2024-03-08T04:27:11;10.35;;;4.25;;
70102;SDS011;57470;50.034;15.256;2024-03-08T04:29:37;15.30;;;5.70;;
70102;SDS011;57470;50.034;15.256;2024-03-08T04:32:03;17.37;;;3.87;;
70102;SDS011;57470;50.034;15.256;2024-03-08T04:34:30;9.73;;;4.25;;
70102;SDS011;57470;50.034;15.256;2024-03-08T04:36:59;9.05;;;3.30;;
70102;SDS011;57470;50.034;15.256;2024-03-08T04:39:25;7.50;;;3.45;;
70102;SDS011;57470;50.034;15.256;2024-03-08T04:41:53;10.45;;;4.43;;
70102;SDS011;57470;50.034;15.256;2024-03-08T04:44:21;11.65;;;4.10;;
70102;SDS011;57470;50.034;15.256;2024-03-08T04:46:47;14.05;;;5.45;;
70102;SDS011;57470;50.034;15.256;2024-03-08T04:49:13;7.40;;;3.37;;
70102;SDS011;57470;50.034;15.256;2024-03-08T04:51:38;13.93;;;5.50;;
70102;SDS011;57470;50.034;15.256;2024-03-08T04:54:03;9.83;;;4.93;;
70102;SDS011;57470;50.034;15.256;2024-03-08T04:56:30;7.80;;;3.78;;
70102;SDS011;57470;50.034;15.256;2024-03-08T04:58:55;12.40;;;4.47;;
70102;SDS011;57470;50.034;15.256;2024-03-08T05:01:21;11.87;;;4.20;;
70102;SDS011;57470;50.034;15.256;2024-03-08T05:03:46;9.40;;;3.93;;
70102;SDS011;57470;50.034;15.256;2024-03-08T05:06:14;11.93;;;4.88;;
70102;SDS011;57470;50.034;15.256;2024-03-08T05:08:40;8.13;;;3.28;;
70102;SDS011;57470;50.034;15.256;2024-03-08T05:11:06;12.93;;;3.83;;
70102;SDS011;57470;50.034;15.256;2024-03-08T05:13:32;7.38;;;3.85;;
70102;SDS011;57470;50.034;15.256;2024-03-08T05:15:59;11.20;;;3.37;;
70102;SDS011;57470;50.034;15.256;2024-03-08T05:18:24;8.65;;;3.70;;
70102;SDS011;57470;50.034;15.256;2024-03-08T05:20:50;9.57;;;3.57;;
70102;SDS011;57470;50.034;15.256;2024-03-08T05:23:16;12.25;;;4.53;;
70102;SDS011;57470;50.034;15.256;2024-03-08T05:25:44;11.48;;;4.10;;
70102;SDS011;57470;50.034;15.256;2024-03-08T05:28:11;7.90;;;3.22;;
70102;SDS011;57470;50.034;15.256;2024-03-08T05:30:37;11.50;;;3.78;;
70102;SDS011;57470;50.034;15.256;2024-03-08T05:33:03;8.18;;;3.08;;
70102;SDS011;57470;50.034;15.256;2024-03-08T05:35:29;9.63;;;3.73;;
70102;SDS011;57470;50.034;15.256;2024-03-08T05:37:54;6.33;;;2.43;;
70102;SDS011;57470;50.034;15.256;2024-03-08T05:40:19;10.87;;;3.57;;
70102;SDS011;57470;50.034;15.256;2024-03-08T05:42:45;9.47;;;3.50;;
70102;SDS011;57470;50.034;15.256;2024-03-08T05:45:10;10.43;;;2.90;;
70102;SDS011;57470;50.034;15.256;2024-03-08T05:47:36;11.17;;;4.33;;
70102;SDS011;57470;50.034;15.256;2024-03-08T05:50:01;8.13;;;3.07;;
70102;SDS011;57470;50.034;15.256;2024-03-08T05:52:26;10.67;;;3.93;;
70102;SDS011;57470;50.034;15.256;2024-03-08T05:54:52;11.30;;;4.47;;
70102;SDS011;57470;50.034;15.256;2024-03-08T05:57:17;13.43;;;4.23;;
70102;SDS011;57470;50.034;15.256;2024-03-08T05:59:43;12.07;;;2.97;;
70102;SDS011;57470;50.034;15.256;2024-03-08T06:02:08;7.00;;;2.90;;
70102;SDS011;57470;50.034;15.256;2024-03-08T06:04:33;11.23;;;4.47;;
70102;SDS011;57470;50.034;15.256;2024-03-08T06:06:59;8.10;;;4.13;;
70102;SDS011;57470;50.034;15.256;2024-03-08T06:09:24;8.93;;;3.03;;
70102;SDS011;57470;50.034;15.256;2024-03-08T06:11:51;8.73;;;4.47;;
70102;SDS011;57470;50.034;15.256;2024-03-08T06:14:18;10.40;;;4.07;;
70102;SDS011;57470;50.034;15.256;2024-03-08T06:16:46;11.02;;;3.95;;
70102;SDS011;57470;50.034;15.256;2024-03-08T06:19:12;7.40;;;2.60;;
70102;SDS011;57470;50.034;15.256;2024-03-08T06:21:38;13.00;;;3.97;;
70102;SDS011;57470;50.034;15.256;2024-03-08T06:24:03;10.50;;;4.65;;
70102;SDS011;57470;50.034;15.256;2024-03-08T06:26:29;10.77;;;3.30;;
70102;SDS011;57470;50.034;15.256;2024-03-08T06:28:54;9.23;;;4.57;;
70102;SDS011;57470;50.034;15.256;2024-03-08T06:31:20;12.57;;;4.63;;
70102;SDS011;57470;50.034;15.256;2024-03-08T06:33:45;8.63;;;3.63;;
70102;SDS011;57470;50.034;15.256;2024-03-08T06:36:11;12.37;;;5.20;;
70102;SDS011;57470;50.034;15.256;2024-03-08T06:38:37;12.63;;;5.28;;
70102;SDS011;57470;50.034;15.256;2024-03-08T06:41:07;10.98;;;5.43;;
70102;SDS011;57470;50.034;15.256;2024-03-08T06:43:41;8.80;;;4.45;;
70102;SDS011;57470;50.034;15.256;2024-03-08T06:46:10;13.97;;;5.60;;
70102;SDS011;57470;50.034;15.256;2024-03-08T06:48:37;9.65;;;4.40;;
70102;SDS011;57470;50.034;15.256;2024-03-08T06:51:06;22.38;;;6.57;;
70102;SDS011;57470;50.034;15.256;2024-03-08T06:53:32;10.80;;;5.32;;
70102;SDS011;57470;50.034;15.256;2024-03-08T06:56:01;15.37;;;5.17;;
70102;SDS011;57470;50.034;15.256;2024-03-08T06:58:27;19.90;;;6.78;;
70102;SDS011;57470;50.034;15.256;2024-03-08T07:00:52;16.70;;;6.27;;
70102;SDS011;57470;50.034;15.256;2024-03-08T07:03:18;16.63;;;5.70;;
70102;SDS011;57470;50.034;15.256;2024-03-08T07:05:44;18.30;;;7.50;;
70102;SDS011;57470;50.034;15.256;2024-03-08T07:08:10;20.80;;;7.53;;
70102;SDS011;57470;50.034;15.256;2024-03-08T07:10:37;18.33;;;8.05;;
70102;SDS011;57470;50.034;15.256;2024-03-08T07:13:03;26.27;;;9.00;;
70102;SDS011;57470;50.034;15.256;2024-03-08T07:15:28;18.07;;;7.10;;
70102;SDS011;57470;50.034;15.256;2024-03-08T07:17:54;24.17;;;8.37;;
70102;SDS011;57470;50.034;15.256;2024-03-08T07:20:20;22.52;;;8.82;;
70102;SDS011;57470;50.034;15.256;2024-03-08T07:22:46;19.05;;;8.63;;
70102;SDS011;57470;50.034;15.256;2024-03-08T07:25:12;20.83;;;8.73;;
70102;SDS011;57470;50.034;15.256;2024-03-08T07:27:49;16.03;;;7.37;;
70102;SDS011;57470;50.034;15.256;2024-03-08T07:30:19;18.25;;;7.22;;
70102;SDS011;57470;50.034;15.256;2024-03-08T07:33:05;16.65;;;6.80;;
70102;SDS011;57470;50.034;15.256;2024-03-08T07:35:32;18.33;;;7.30;;
70102;SDS011;57470;50.034;15.256;2024-03-08T07:37:57;20.93;;;8.43;;
70102;SDS011;57470;50.034;15.256;2024-03-08T07:40:24;16.30;;;6.40;;
70102;SDS011;57470;50.034;15.256;2024-03-08T07:42:50;25.20;;;9.52;;
70102;SDS011;57470;50.034;15.256;2024-03-08T07:45:16;18.73;;;8.37;;
70102;SDS011;57470;50.034;15.256;2024-03-08T07:47:41;19.70;;;6.53;;
70102;SDS011;57470;50.034;15.256;2024-03-08T07:50:07;27.67;;;8.63;;
70102;SDS011;57470;50.034;15.256;2024-03-08T07:52:34;18.07;;;9.43;;
70102;SDS011;57470;50.034;15.256;2024-03-08T07:55:00;20.90;;;8.20;;
70102;SDS011;57470;50.034;15.256;2024-03-08T07:57:25;17.52;;;6.57;;
70102;SDS011;57470;50.034;15.256;2024-03-08T07:59:51;20.00;;;8.97;;
70102;SDS011;57470;50.034;15.256;2024-03-08T08:02:16;16.20;;;6.80;;
70102;SDS011;57470;50.034;15.256;2024-03-08T08:04:41;18.53;;;8.63;;
70102;SDS011;57470;50.034;15.256;2024-03-08T08:07:10;19.75;;;7.22;;
70102;SDS011;57470;50.034;15.256;2024-03-08T08:09:35;14.77;;;6.47;;
70102;SDS011;57470;50.034;15.256;2024-03-08T08:12:00;19.13;;;7.00;;
70102;SDS011;57470;50.034;15.256;2024-03-08T08:14:29;11.20;;;4.80;;
70102;SDS011;57470;50.034;15.256;2024-03-08T08:16:56;18.98;;;6.05;;
70102;SDS011;57470;50.034;15.256;2024-03-08T08:19:22;14.15;;;5.68;;
70102;SDS011;57470;50.034;15.256;2024-03-08T08:21:48;17.27;;;7.55;;
70102;SDS011;57470;50.034;15.256;2024-03-08T08:24:14;15.93;;;5.93;;
70102;SDS011;57470;50.034;15.256;2024-03-08T08:26:39;15.10;;;5.88;;
70102;SDS011;57470;50.034;15.256;2024-03-08T08:29:05;13.70;;;6.00;;
70102;SDS011;57470;50.034;15.256;2024-03-08T08:31:31;17.50;;;6.47;;
70102;SDS011;57470;50.034;15.256;2024-03-08T08:33:58;17.10;;;6.95;;
70102;SDS011;57470;50.034;15.256;2024-03-08T08:36:23;6.57;;;2.53;;
70102;SDS011;57470;50.034;15.256;2024-03-08T08:38:49;17.30;;;5.60;;
70102;SDS011;57470;50.034;15.256;2024-03-08T08:41:15;16.60;;;5.30;;
70102;SDS011;57470;50.034;15.256;2024-03-08T08:43:42;24.85;;;7.18;;
70102;SDS011;57470;50.034;15.256;2024-03-08T08:46:09;9.60;;;4.28;;
70102;SDS011;57470;50.034;15.256;2024-03-08T08:48:38;10.55;;;4.15;;
70102;SDS011;57470;50.034;15.256;2024-03-08T08:51:06;16.70;;;6.13;;
70102;SDS011;57470;50.034;15.256;2024-03-08T08:53:31;10.73;;;5.55;;
70102;SDS011;57470;50.034;15.256;2024-03-08T08:55:56;14.53;;;5.10;;
70102;SDS011;57470;50.034;15.256;2024-03-08T08:58:22;11.27;;;3.50;;
70102;SDS011;57470;50.034;15.256;2024-03-08T09:00:47;16.80;;;6.30;;
70102;SDS011;57470;50.034;15.256;2024-03-08T09:03:13;11.43;;;5.43;;
70102;SDS011;57470;50.034;15.256;2024-03-08T09:05:38;12.43;;;4.43;;
70102;SDS011;57470;50.034;15.256;2024-03-08T09:08:03;14.57;;;5.07;;
70102;SDS011;57470;50.034;15.256;2024-03-08T09:10:29;12.03;;;4.53;;
70102;SDS011;57470;50.034;15.256;2024-03-08T09:12:54;10.80;;;3.87;;
70102;SDS011;57470;50.034;15.256;2024-03-08T09:15:20;8.63;;;3.13;;
70102;SDS011;57470;50.034;15.256;2024-03-08T09:17:46;16.70;;;5.38;;
70102;SDS011;57470;50.034;15.256;2024-03-08T09:20:12;10.23;;;4.72;;
70102;SDS011;57470;50.034;15.256;2024-03-08T09:22:40;9.03;;;3.97;;
70102;SDS011;57470;50.034;15.256;2024-03-08T09:25:08;9.27;;;4.30;;
70102;SDS011;57470;50.034;15.256;2024-03-08T09:27:34;9.27;;;3.33;;
70102;SDS011;57470;50.034;15.256;2024-03-08T09:30:00;8.73;;;3.37;;
70102;SDS011;57470;50.034;15.256;2024-03-08T09:32:26;14.25;;;5.45;;
70102;SDS011;57470;50.034;15.256;2024-03-08T09:34:51;12.50;;;5.30;;
70102;SDS011;57470;50.034;15.256;2024-03-08T09:37:17;11.07;;;3.93;;
70102;SDS011;57470;50.034;15.256;2024-03-08T09:39:46;8.45;;;4.20;;
70102;SDS011;57470;50.034;15.256;2024-03-08T09:42:12;10.95;;;3.45;;
70102;SDS011;57470;50.034;15.256;2024-03-08T09:44:46;11.40;;;4.07;;
70102;SDS011;57470;50.034;15.256;2024-03-08T09:47:15;8.80;;;3.97;;
70102;SDS011;57470;50.034;15.256;2024-03-08T09:49:41;18.50;;;5.30;;
70102;SDS011;57470;50.034;15.256;2024-03-08T09:52:08;12.70;;;4.95;;
70102;SDS011;57470;50.034;15.256;2024-03-08T09:54:35;8.90;;;3.78;;
70102;SDS011;57470;50.034;15.256;2024-03-08T09:57:01;12.18;;;4.47;;
70102;SDS011;57470;50.034;15.256;2024-03-08T09:59:29;8.68;;;3.78;;
70102;SDS011;57470;50.034;15.256;2024-03-08T10:02:00;10.33;;;3.23;;
70102;SDS011;57470;50.034;15.256;2024-03-08T10:04:27;12.77;;;3.42;;
70102;SDS011;57470;50.034;15.256;2024-03-08T10:06:55;14.88;;;4.93;;
70102;SDS011;57470;50.034;15.256;2024-03-08T10:09:24;8.07;;;3.67;;
70102;SDS011;57470;50.034;15.256;2024-03-08T10:11:58;25.50;;;5.57;;
70102;SDS011;57470;50.034;15.256;2024-03-08T10:14:24;11.73;;;4.67;;
70102;SDS011;57470;50.034;15.256;2024-03-08T10:16:51;14.43;;;4.55;;
70102;SDS011;57470;50.034;15.256;2024-03-08T10:19:17;13.05;;;5.97;;
70102;SDS011;57470;50.034;15.256;2024-03-08T10:21:49;12.83;;;5.47;;
70102;SDS011;57470;50.034;15.256;2024-03-08T10:24:15;14.70;;;5.30;;
70102;SDS011;57470;50.034;15.256;2024-03-08T10:26:40;21.13;;;6.60;;
70102;SDS011;57470;50.034;15.256;2024-03-08T10:29:08;9.95;;;3.75;;
70102;SDS011;57470;50.034;15.256;2024-03-08T10:31:34;7.50;;;3.33;;
70102;SDS011;57470;50.034;15.256;2024-03-08T10:33:59;14.63;;;5.30;;
70102;SDS011;57470;50.034;15.256;2024-03-08T10:36:26;16.95;;;6.57;;
70102;SDS011;57470;50.034;15.256;2024-03-08T10:38:53;10.85;;;3.60;;
70102;SDS011;57470;50.034;15.256;2024-03-08T10:41:18;9.80;;;4.97;;
70102;SDS011;57470;50.034;15.256;2024-03-08T10:49:12;13.20;;;5.47;;
70102;SDS011;57470;50.034;15.256;2024-03-08T10:51:42;14.87;;;6.07;;
70102;SDS011;57470;50.034;15.256;2024-03-08T10:54:08;18.20;;;5.53;;
70102;SDS011;57470;50.034;15.256;2024-03-08T10:56:35;10.32;;;5.20;;
70102;SDS011;57470;50.034;15.256;2024-03-08T10:59:01;14.93;;;5.40;;
70102;SDS011;57470;50.034;15.256;2024-03-08T11:01:29;11.13;;;5.55;;
70102;SDS011;57470;50.034;15.256;2024-03-08T11:03:54;12.55;;;4.97;;
70102;SDS011;57470;50.034;15.256;2024-03-08T11:06:31;12.37;;;4.53;;
70102;SDS011;57470;50.034;15.256;2024-03-08T11:12:25;12.73;;;5.45;;
70102;SDS011;57470;50.034;15.256;2024-03-08T11:15:01;16.90;;;4.57;;
70102;SDS011;57470;50.034;15.256;2024-03-08T11:20:13;10.43;;;4.63;;
70102;SDS011;57470;50.034;15.256;2024-03-08T11:23:02;11.38;;;4.78;;
70102;SDS011;57470;50.034;15.256;2024-03-08T11:25:32;14.40;;;5.85;;
70102;SDS011;57470;50.034;15.256;2024-03-08T11:30:44;13.70;;;4.40;;
70102;SDS011;57470;50.034;15.256;2024-03-08T11:33:34;11.83;;;3.60;;
70102;SDS011;57470;50.034;15.256;2024-03-08T11:38:39;12.68;;;4.35;;
70102;SDS011;57470;50.034;15.256;2024-03-08T11:41:06;12.63;;;5.13;;
70102;SDS011;57470;50.034;15.256;2024-03-08T11:43:31;13.77;;;4.13;;
70102;SDS011;57470;50.034;15.256;2024-03-08T11:46:07;12.33;;;4.53;;
70102;SDS011;57470;50.034;15.256;2024-03-08T11:48:33;10.75;;;4.00;;
70102;SDS011;57470;50.034;15.256;2024-03-08T11:51:01;11.35;;;4.15;;
70102;SDS011;57470;50.034;15.256;2024-03-08T11:53:28;7.95;;;2.92;;
70102;SDS011;57470;50.034;15.256;2024-03-08T11:55:53;8.93;;;3.63;;
70102;SDS011;57470;50.034;15.256;2024-03-08T11:58:18;13.70;;;5.63;;
70102;SDS011;57470;50.034;15.256;2024-03-08T12:00:44;10.07;;;3.97;;
70102;SDS011;57470;50.034;15.256;2024-03-08T12:03:11;12.85;;;4.65;;
70102;SDS011;57470;50.034;15.256;2024-03-08T12:05:37;13.00;;;5.25;;
70102;SDS011;57470;50.034;15.256;2024-03-08T12:08:04;11.50;;;4.88;;
70102;SDS011;57470;50.034;15.256;2024-03-08T12:10:32;9.80;;;3.67;;
70102;SDS011;57470;50.034;15.256;2024-03-08T12:12:58;13.40;;;5.00;;
70102;SDS011;57470;50.034;15.256;2024-03-08T12:15:28;14.88;;;5.32;;
70102;SDS011;57470;50.034;15.256;2024-03-08T12:17:54;11.88;;;3.25;;
70102;SDS011;57470;50.034;15.256;2024-03-08T12:20:21;12.57;;;4.40;;
70102;SDS011;57470;50.034;15.256;2024-03-08T12:22:51;11.33;;;4.47;;
70102;SDS011;57470;50.034;15.256;2024-03-08T12:25:18;5.75;;;2.88;;
70102;SDS011;57470;50.034;15.256;2024-03-08T12:27:45;13.05;;;4.30;;
70102;SDS011;57470;50.034;15.256;2024-03-08T12:32:53;8.60;;;3.15;;
70102;SDS011;57470;50.034;15.256;2024-03-08T12:35:21;9.57;;;3.90;;
70102;SDS011;57470;50.034;15.256;2024-03-08T12:37:54;10.82;;;4.53;;
70102;SDS011;57470;50.034;15.256;2024-03-08T12:40:27;14.43;;;4.22;;
70102;SDS011;57470;50.034;15.256;2024-03-08T12:42:55;12.75;;;4.93;;
70102;SDS011;57470;50.034;15.256;2024-03-08T12:45:21;10.70;;;4.47;;
70102;SDS011;57470;50.034;15.256;2024-03-08T12:47:49;13.27;;;4.50;;
70102;SDS011;57470;50.034;15.256;2024-03-08T12:50:15;10.55;;;3.50;;
70102;SDS011;57470;50.034;15.256;2024-03-08T12:52:42;7.15;;;2.95;;
70102;SDS011;57470;50.034;15.256;2024-03-08T12:55:07;6.73;;;3.10;;
70102;SDS011;57470;50.034;15.256;2024-03-08T12:57:33;8.10;;;3.00;;
70102;SDS011;57470;50.034;15.256;2024-03-08T13:00:00;9.30;;;3.00;;
70102;SDS011;57470;50.034;15.256;2024-03-08T13:02:27;11.20;;;3.83;;
70102;SDS011;57470;50.034;15.256;2024-03-08T13:04:53;10.47;;;3.87;;
70102;SDS011;57470;50.034;15.256;2024-03-08T13:07:22;10.05;;;3.83;;
70102;SDS011;57470;50.034;15.256;2024-03-08T13:09:51;9.55;;;4.15;;
70102;SDS011;57470;50.034;15.256;2024-03-08T13:12:17;9.68;;;4.13;;
70102;SDS011;57470;50.034;15.256;2024-03-08T13:14:43;9.20;;;3.67;;
70102;SDS011;57470;50.034;15.256;2024-03-08T13:17:08;10.20;;;3.37;;
70102;SDS011;57470;50.034;15.256;2024-03-08T13:19:36;11.95;;;3.88;;
70102;SDS011;57470;50.034;15.256;2024-03-08T13:22:03;11.68;;;3.92;;
70102;SDS011;57470;50.034;15.256;2024-03-08T13:24:32;10.88;;;2.95;;
70102;SDS011;57470;50.034;15.256;2024-03-08T13:26:58;9.60;;;3.73;;
70102;SDS011;57470;50.034;15.256;2024-03-08T13:29:24;10.40;;;3.83;;
70102;SDS011;57470;50.034;15.256;2024-03-08T13:31:50;9.88;;;4.07;;
70102;SDS011;57470;50.034;15.256;2024-03-08T13:34:17;11.90;;;4.03;;
70102;SDS011;57470;50.034;15.256;2024-03-08T13:36:43;10.85;;;3.83;;
70102;SDS011;57470;50.034;15.256;2024-03-08T13:39:10;11.32;;;3.75;;
70102;SDS011;57470;50.034;15.256;2024-03-08T13:41:40;9.43;;;4.22;;
70102;SDS011;57470;50.034;15.256;2024-03-08T13:44:07;10.60;;;4.85;;
70102;SDS011;57470;50.034;15.256;2024-03-08T13:46:32;14.47;;;4.57;;
70102;SDS011;57470;50.034;15.256;2024-03-08T13:49:03;6.90;;;2.90;;
70102;SDS011;57470;50.034;15.256;2024-03-08T13:51:35;9.90;;;3.97;;
70102;SDS011;57470;50.034;15.256;2024-03-08T13:54:00;7.40;;;2.00;;
70102;SDS011;57470;50.034;15.256;2024-03-08T13:56:26;11.33;;;4.00;;
70102;SDS011;57470;50.034;15.256;2024-03-08T13:58:54;5.00;;;1.67;;
70102;SDS011;57470;50.034;15.256;2024-03-08T14:01:22;9.00;;;3.08;;
70102;SDS011;57470;50.034;15.256;2024-03-08T14:03:47;9.97;;;3.67;;
70102;SDS011;57470;50.034;15.256;2024-03-08T14:06:13;8.17;;;3.63;;
70102;SDS011;57470;50.034;15.256;2024-03-08T14:08:38;8.25;;;3.00;;
70102;SDS011;57470;50.034;15.256;2024-03-08T14:11:04;14.83;;;4.07;;
70102;SDS011;57470;50.034;15.256;2024-03-08T14:13:41;8.25;;;3.22;;
70102;SDS011;57470;50.034;15.256;2024-03-08T14:16:12;6.97;;;3.03;;
70102;SDS011;57470;50.034;15.256;2024-03-08T14:18:38;6.70;;;2.63;;
70102;SDS011;57470;50.034;15.256;2024-03-08T14:21:04;6.47;;;2.30;;
70102;SDS011;57470;50.034;15.256;2024-03-08T14:23:33;10.32;;;4.85;;
70102;SDS011;57470;50.034;15.256;2024-03-08T14:25:59;6.87;;;2.47;;
70102;SDS011;57470;50.034;15.256;2024-03-08T14:28:25;8.35;;;3.03;;
70102;SDS011;57470;50.034;15.256;2024-03-08T14:30:52;6.43;;;2.55;;
70102;SDS011;57470;50.034;15.256;2024-03-08T14:33:18;8.87;;;3.27;;
70102;SDS011;57470;50.034;15.256;2024-03-08T14:35:44;13.98;;;3.13;;
70102;SDS011;57470;50.034;15.256;2024-03-08T14:38:12;5.63;;;1.85;;
70102;SDS011;57470;50.034;15.256;2024-03-08T14:40:37;8.20;;;3.23;;
70102;SDS011;57470;50.034;15.256;2024-03-08T14:43:03;6.53;;;2.70;;